sensor_id;sensor_type;location;lat;lon;timestamp;P1;durP1;ratioP1;P2;durP2;ratioP2
27907;SDS011;15249;48.092;11.484;2022-07-23T00:00:22;8.950002;;;8.15;;
27907;SDS011;15249;48.092;11.484;2022-07-23T00:01:23;8.950002;;;8.15;;
27907;SDS011;15249;48.092;11.484;2022-07-23T00:02:23;8.950002;;;8.15;;
27907;SDS011;15249;48.092;11.484;2022-07-23T00:03:24;8.950002;;;8.15;;
27907;SDS011;15249;48.092;11.484;2022-07-23T00:04:25;8.950002;;;8.15;;
27907;SDS011;15249;48.092;11.484;2022-07-23T00:05:25;8.950002;;;8.15;;
27907;SDS011;15249;48.092;11.484;2022-07-23T00:06:26;8.950002;;;8.15;;
27907;SDS011;15249;48.092;11.484;2022-07-23T00:07:27;8.950002;;;8.15;;
27907;SDS011;15249;48.092;11.484;2022-07-23T00:08:27;8.950002;;;8.15;;
27907;SDS011;15249;48.092;11.484;2022-07-23T00:09:30;8.950002;;;8.15;;
27907;SDS011;15249;48.092;11.484;2022-07-23T00:10:31;8.450001;;;7.700001;;
27907;SDS011;15249;48.092;11.484;2022-07-23T00:11:32;8.450001;;;7.700001;;
27907;SDS011;15249;48.092;11.484;2022-07-23T00:12:33;8.450001;;;7.700001;;
27907;SDS011;15249;48.092;11.484;2022-07-23T00:13:34;8.450001;;;7.700001;;
27907;SDS011;15249;48.092;11.484;2022-07-23T00:14:34;8.450001;;;7.700001;;
27907;SDS011;15249;48.092;11.484;2022-07-23T00:15:35;8.450001;;;7.700001;;
27907;SDS011;15249;48.092;11.484;2022-07-23T00:16:35;8.450001;;;7.700001;;
27907;SDS011;15249;48.092;11.484;2022-07-23T00:17:36;8.450001;;;7.700001;;
27907;SDS011;15249;48.092;11.484;2022-07-23T00:18:36;8.450001;;;7.700001;;
27907;SDS011;15249;48.092;11.484;2022-07-23T00:19:37;8.450001;;;7.700001;;
27907;SDS011;15249;48.092;11.484;2022-07-23T00:20:37;8.450001;;;7.700001;;
27907;SDS011;15249;48.092;11.484;2022-07-23T00:21:38;8.700001;;;7.900001;;
27907;SDS011;15249;48.092;11.484;2022-07-23T00:22:45;8.700001;;;7.900001;;
27907;SDS011;15249;48.092;11.484;2022-07-23T00:23:46;8.700001;;;7.900001;;
27907;SDS011;15249;48.092;11.484;2022-07-23T00:24:46;8.700001;;;7.900001;;
27907;SDS011;15249;48.092;11.484;2022-07-23T00:25:47;8.700001;;;7.900001;;
27907;SDS011;15249;48.092;11.484;2022-07-23T00:26:47;8.700001;;;7.900001;;
27907;SDS011;15249;48.092;11.484;2022-07-23T00:27:48;8.700001;;;7.900001;;
27907;SDS011;15249;48.092;11.484;2022-07-23T00:28:48;8.700001;;;7.900001;;
27907;SDS011;15249;48.092;11.484;2022-07-23T00:29:49;8.700001;;;7.900001;;
27907;SDS011;15249;48.092;11.484;2022-07-23T00:30:49;8.700001;;;7.900001;;
27907;SDS011;15249;48.092;11.484;2022-07-23T00:31:50;8.949998;;;8.15;;
27907;SDS011;15249;48.092;11.484;2022-07-23T00:32:52;8.949998;;;8.15;;
27907;SDS011;15249;48.092;11.484;2022-07-23T00:33:56;8.949998;;;8.15;;
27907;SDS011;15249;48.092;11.484;2022-07-23T00:34:57;8.949998;;;8.15;;
27907;SDS011;15249;48.092;11.484;2022-07-23T00:35:57;8.949998;;;8.15;;
27907;SDS011;15249;48.092;11.484;2022-07-23T00:36:58;8.949998;;;8.15;;
27907;SDS011;15249;48.092;11.484;2022-07-23T00:37:59;8.949998;;;8.15;;
27907;SDS011;15249;48.092;11.484;2022-07-23T00:39:00;8.949998;;;8.15;;
27907;SDS011;15249;48.092;11.484;2022-07-23T00:40:00;8.949998;;;8.15;;
27907;SDS011;15249;48.092;11.484;2022-07-23T00:41:01;8.949998;;;8.15;;
27907;SDS011;15249;48.092;11.484;2022-07-23T00:42:01;8.5;;;7.699999;;
27907;SDS011;15249;48.092;11.484;2022-07-23T00:43:02;8.5;;;7.699999;;
27907;SDS011;15249;48.092;11.484;2022-07-23T00:44:14;8.5;;;7.699999;;
27907;SDS011;15249;48.092;11.484;2022-07-23T00:45:15;8.5;;;7.699999;;
27907;SDS011;15249;48.092;11.484;2022-07-23T00:46:18;8.5;;;7.699999;;
27907;SDS011;15249;48.092;11.484;2022-07-23T00:47:19;8.5;;;7.699999;;
27907;SDS011;15249;48.092;11.484;2022-07-23T00:48:20;8.5;;;7.699999;;
27907;SDS011;15249;48.092;11.484;2022-07-23T00:49:20;8.5;;;7.699999;;
27907;SDS011;15249;48.092;11.484;2022-07-23T00:50:21;8.5;;;7.699999;;
27907;SDS011;15249;48.092;11.484;2022-07-23T00:51:22;8.5;;;7.699999;;
27907;SDS011;15249;48.092;11.484;2022-07-23T00:52:22;8.5;;;7.699999;;
27907;SDS011;15249;48.092;11.484;2022-07-23T00:53:23;8.5;;;7.699999;;
27907;SDS011;15249;48.092;11.484;2022-07-23T00:54:25;8.5;;;7.699999;;
27907;SDS011;15249;48.092;11.484;2022-07-23T00:55:26;8.5;;;7.699999;;
27907;SDS011;15249;48.092;11.484;2022-07-23T00:56:27;8.5;;;7.699999;;
27907;SDS011;15249;48.092;11.484;2022-07-23T00:57:28;8.5;;;7.699999;;
27907;SDS011;15249;48.092;11.484;2022-07-23T00:58:28;8.5;;;7.699999;;
27907;SDS011;15249;48.092;11.484;2022-07-23T00:59:29;8.5;;;7.699999;;
27907;SDS011;15249;48.092;11.484;2022-07-23T01:00:30;8.5;;;7.699999;;
27907;SDS011;15249;48.092;11.484;2022-07-23T01:01:30;8.5;;;7.699999;;
27907;SDS011;15249;48.092;11.484;2022-07-23T01:02:31;8.5;;;7.699999;;
27907;SDS011;15249;48.092;11.484;2022-07-23T01:03:31;8.05;;;7.25;;
27907;SDS011;15249;48.092;11.484;2022-07-23T01:04:32;8.05;;;7.25;;
27907;SDS011;15249;48.092;11.484;2022-07-23T01:05:33;8.05;;;7.25;;
27907;SDS011;15249;48.092;11.484;2022-07-23T01:06:34;8.05;;;7.25;;
27907;SDS011;15249;48.092;11.484;2022-07-23T01:07:37;8.05;;;7.25;;
27907;SDS011;15249;48.092;11.484;2022-07-23T01:08:38;8.05;;;7.25;;
27907;SDS011;15249;48.092;11.484;2022-07-23T01:09:39;8.05;;;7.25;;
27907;SDS011;15249;48.092;11.484;2022-07-23T01:10:41;8.05;;;7.25;;
27907;SDS011;15249;48.092;11.484;2022-07-23T01:11:41;8.05;;;7.25;;
27907;SDS011;15249;48.092;11.484;2022-07-23T01:12:42;8.05;;;7.25;;
27907;SDS011;15249;48.092;11.484;2022-07-23T01:13:43;8.05;;;7.25;;
27907;SDS011;15249;48.092;11.484;2022-07-23T01:14:44;11.5;;;8.299999;;
27907;SDS011;15249;48.092;11.484;2022-07-23T01:15:45;11.5;;;8.299999;;
27907;SDS011;15249;48.092;11.484;2022-07-23T01:16:46;11.5;;;8.299999;;
27907;SDS011;15249;48.092;11.484;2022-07-23T01:17:48;11.5;;;8.299999;;
27907;SDS011;15249;48.092;11.484;2022-07-23T01:18:48;11.5;;;8.299999;;
27907;SDS011;15249;48.092;11.484;2022-07-23T01:19:49;11.5;;;8.299999;;
27907;SDS011;15249;48.092;11.484;2022-07-23T01:20:49;11.5;;;8.299999;;
27907;SDS011;15249;48.092;11.484;2022-07-23T01:21:50;11.5;;;8.299999;;
27907;SDS011;15249;48.092;11.484;2022-07-23T01:22:53;11.5;;;8.299999;;
27907;SDS011;15249;48.092;11.484;2022-07-23T01:23:54;11.5;;;8.299999;;
27907;SDS011;15249;48.092;11.484;2022-07-23T01:24:54;13.35;;;8.699999;;
27907;SDS011;15249;48.092;11.484;2022-07-23T01:25:55;13.35;;;8.699999;;
27907;SDS011;15249;48.092;11.484;2022-07-23T01:26:56;13.35;;;8.699999;;
27907;SDS011;15249;48.092;11.484;2022-07-23T01:27:56;13.35;;;8.699999;;
27907;SDS011;15249;48.092;11.484;2022-07-23T01:28:57;13.35;;;8.699999;;
27907;SDS011;15249;48.092;11.484;2022-07-23T01:29:57;13.35;;;8.699999;;
27907;SDS011;15249;48.092;11.484;2022-07-23T01:31:00;13.35;;;8.699999;;
27907;SDS011;15249;48.092;11.484;2022-07-23T01:32:00;13.35;;;8.699999;;
27907;SDS011;15249;48.092;11.484;2022-07-23T01:33:01;13.35;;;8.699999;;
27907;SDS011;15249;48.092;11.484;2022-07-23T01:34:01;13.35;;;8.699999;;
27907;SDS011;15249;48.092;11.484;2022-07-23T01:35:03;13.35;;;8.699999;;
27907;SDS011;15249;48.092;11.484;2022-07-23T01:36:04;14.6;;;7.55;;
27907;SDS011;15249;48.092;11.484;2022-07-23T01:37:05;14.6;;;7.55;;
27907;SDS011;15249;48.092;11.484;2022-07-23T01:38:06;14.6;;;7.55;;
27907;SDS011;15249;48.092;11.484;2022-07-23T01:39:07;14.6;;;7.55;;
27907;SDS011;15249;48.092;11.484;2022-07-23T01:40:08;14.6;;;7.55;;
27907;SDS011;15249;48.092;11.484;2022-07-23T01:41:09;14.6;;;7.55;;
27907;SDS011;15249;48.092;11.484;2022-07-23T01:42:09;14.6;;;7.55;;
27907;SDS011;15249;48.092;11.484;2022-07-23T01:43:10;14.6;;;7.55;;
27907;SDS011;15249;48.092;11.484;2022-07-23T01:44:10;14.6;;;7.55;;
27907;SDS011;15249;48.092;11.484;2022-07-23T01:45:11;14.6;;;7.55;;
27907;SDS011;15249;48.092;11.484;2022-07-23T01:46:12;9.35;;;7.849999;;
27907;SDS011;15249;48.092;11.484;2022-07-23T01:47:12;9.35;;;7.849999;;
27907;SDS011;15249;48.092;11.484;2022-07-23T01:48:13;9.35;;;7.849999;;
27907;SDS011;15249;48.092;11.484;2022-07-23T01:49:14;9.35;;;7.849999;;
27907;SDS011;15249;48.092;11.484;2022-07-23T01:50:14;9.35;;;7.849999;;
27907;SDS011;15249;48.092;11.484;2022-07-23T01:51:15;9.35;;;7.849999;;
27907;SDS011;15249;48.092;11.484;2022-07-23T01:52:16;9.35;;;7.849999;;
27907;SDS011;15249;48.092;11.484;2022-07-23T01:53:16;9.35;;;7.849999;;
27907;SDS011;15249;48.092;11.484;2022-07-23T01:54:17;9.35;;;7.849999;;
27907;SDS011;15249;48.092;11.484;2022-07-23T01:55:17;9.35;;;7.849999;;
27907;SDS011;15249;48.092;11.484;2022-07-23T01:56:20;9.35;;;7.849999;;
27907;SDS011;15249;48.092;11.484;2022-07-23T01:57:21;9.450001;;;8.549999;;
27907;SDS011;15249;48.092;11.484;2022-07-23T01:58:22;9.450001;;;8.549999;;
27907;SDS011;15249;48.092;11.484;2022-07-23T01:59:22;9.450001;;;8.549999;;
27907;SDS011;15249;48.092;11.484;2022-07-23T02:00:23;9.450001;;;8.549999;;
27907;SDS011;15249;48.092;11.484;2022-07-23T02:01:23;9.450001;;;8.549999;;
27907;SDS011;15249;48.092;11.484;2022-07-23T02:02:24;9.450001;;;8.549999;;
27907;SDS011;15249;48.092;11.484;2022-07-23T02:03:24;9.450001;;;8.549999;;
27907;SDS011;15249;48.092;11.484;2022-07-23T02:04:26;9.450001;;;8.549999;;
27907;SDS011;15249;48.092;11.484;2022-07-23T02:05:28;9.450001;;;8.549999;;
27907;SDS011;15249;48.092;11.484;2022-07-23T02:06:29;9.450001;;;8.549999;;
27907;SDS011;15249;48.092;11.484;2022-07-23T02:07:29;9.399999;;;8.5;;
27907;SDS011;15249;48.092;11.484;2022-07-23T02:08:30;9.399999;;;8.5;;
27907;SDS011;15249;48.092;11.484;2022-07-23T02:09:30;9.399999;;;8.5;;
27907;SDS011;15249;48.092;11.484;2022-07-23T02:10:31;9.399999;;;8.5;;
27907;SDS011;15249;48.092;11.484;2022-07-23T02:11:31;9.399999;;;8.5;;
27907;SDS011;15249;48.092;11.484;2022-07-23T02:12:32;9.399999;;;8.5;;
27907;SDS011;15249;48.092;11.484;2022-07-23T02:13:33;9.399999;;;8.5;;
27907;SDS011;15249;48.092;11.484;2022-07-23T02:14:33;9.399999;;;8.5;;
27907;SDS011;15249;48.092;11.484;2022-07-23T02:15:34;9.399999;;;8.5;;
27907;SDS011;15249;48.092;11.484;2022-07-23T02:16:35;9.399999;;;8.5;;
27907;SDS011;15249;48.092;11.484;2022-07-23T02:17:35;9.399999;;;8.5;;
27907;SDS011;15249;48.092;11.484;2022-07-23T02:18:36;8.65;;;7.900001;;
27907;SDS011;15249;48.092;11.484;2022-07-23T02:19:36;8.65;;;7.900001;;
27907;SDS011;15249;48.092;11.484;2022-07-23T02:20:38;8.65;;;7.900001;;
27907;SDS011;15249;48.092;11.484;2022-07-23T02:21:38;8.65;;;7.900001;;
27907;SDS011;15249;48.092;11.484;2022-07-23T02:22:39;8.65;;;7.900001;;
27907;SDS011;15249;48.092;11.484;2022-07-23T02:23:40;8.65;;;7.900001;;
27907;SDS011;15249;48.092;11.484;2022-07-23T02:24:40;8.65;;;7.900001;;
27907;SDS011;15249;48.092;11.484;2022-07-23T02:25:41;8.65;;;7.900001;;
27907;SDS011;15249;48.092;11.484;2022-07-23T02:26:41;8.65;;;7.900001;;
27907;SDS011;15249;48.092;11.484;2022-07-23T02:27:42;8.65;;;7.900001;;
27907;SDS011;15249;48.092;11.484;2022-07-23T02:28:43;6.6;;;5.9;;
27907;SDS011;15249;48.092;11.484;2022-07-23T02:29:43;6.6;;;5.9;;
27907;SDS011;15249;48.092;11.484;2022-07-23T02:30:44;6.6;;;5.9;;
27907;SDS011;15249;48.092;11.484;2022-07-23T02:31:44;6.6;;;5.9;;
27907;SDS011;15249;48.092;11.484;2022-07-23T02:32:45;6.6;;;5.9;;
27907;SDS011;15249;48.092;11.484;2022-07-23T02:33:45;6.6;;;5.9;;
27907;SDS011;15249;48.092;11.484;2022-07-23T02:34:46;6.6;;;5.9;;
27907;SDS011;15249;48.092;11.484;2022-07-23T02:35:46;6.6;;;5.9;;
27907;SDS011;15249;48.092;11.484;2022-07-23T02:36:47;6.6;;;5.9;;
27907;SDS011;15249;48.092;11.484;2022-07-23T02:37:47;6.6;;;5.9;;
27907;SDS011;15249;48.092;11.484;2022-07-23T02:38:48;6.6;;;5.9;;
27907;SDS011;15249;48.092;11.484;2022-07-23T02:39:48;6.100001;;;5.5;;
27907;SDS011;15249;48.092;11.484;2022-07-23T02:40:49;6.100001;;;5.5;;
27907;SDS011;15249;48.092;11.484;2022-07-23T02:41:49;6.100001;;;5.5;;
27907;SDS011;15249;48.092;11.484;2022-07-23T02:42:50;6.100001;;;5.5;;
27907;SDS011;15249;48.092;11.484;2022-07-23T02:43:50;6.100001;;;5.5;;
27907;SDS011;15249;48.092;11.484;2022-07-23T02:44:51;6.100001;;;5.5;;
27907;SDS011;15249;48.092;11.484;2022-07-23T02:45:51;6.100001;;;5.5;;
27907;SDS011;15249;48.092;11.484;2022-07-23T02:46:52;6.100001;;;5.5;;
27907;SDS011;15249;48.092;11.484;2022-07-23T02:47:52;6.100001;;;5.5;;
27907;SDS011;15249;48.092;11.484;2022-07-23T02:48:53;6.100001;;;5.5;;
27907;SDS011;15249;48.092;11.484;2022-07-23T02:49:53;6.100001;;;5.5;;
27907;SDS011;15249;48.092;11.484;2022-07-23T02:50:56;5.45;;;4.950001;;
27907;SDS011;15249;48.092;11.484;2022-07-23T02:51:56;5.45;;;4.950001;;
27907;SDS011;15249;48.092;11.484;2022-07-23T02:52:57;5.45;;;4.950001;;
27907;SDS011;15249;48.092;11.484;2022-07-23T02:53:57;5.45;;;4.950001;;
27907;SDS011;15249;48.092;11.484;2022-07-23T02:54:58;5.45;;;4.950001;;
27907;SDS011;15249;48.092;11.484;2022-07-23T02:55:58;5.45;;;4.950001;;
27907;SDS011;15249;48.092;11.484;2022-07-23T02:56:59;5.45;;;4.950001;;
27907;SDS011;15249;48.092;11.484;2022-07-23T02:57:59;5.45;;;4.950001;;
27907;SDS011;15249;48.092;11.484;2022-07-23T02:59:00;5.45;;;4.950001;;
27907;SDS011;15249;48.092;11.484;2022-07-23T03:00:00;5.45;;;4.950001;;
27907;SDS011;15249;48.092;11.484;2022-07-23T03:01:01;7.500001;;;6.799999;;
27907;SDS011;15249;48.092;11.484;2022-07-23T03:02:01;7.500001;;;6.799999;;
27907;SDS011;15249;48.092;11.484;2022-07-23T03:03:02;7.500001;;;6.799999;;
27907;SDS011;15249;48.092;11.484;2022-07-23T03:04:02;7.500001;;;6.799999;;
27907;SDS011;15249;48.092;11.484;2022-07-23T03:05:04;7.500001;;;6.799999;;
27907;SDS011;15249;48.092;11.484;2022-07-23T03:06:05;7.500001;;;6.799999;;
27907;SDS011;15249;48.092;11.484;2022-07-23T03:07:06;7.500001;;;6.799999;;
27907;SDS011;15249;48.092;11.484;2022-07-23T03:08:06;7.500001;;;6.799999;;
27907;SDS011;15249;48.092;11.484;2022-07-23T03:09:07;7.500001;;;6.799999;;
27907;SDS011;15249;48.092;11.484;2022-07-23T03:10:08;7.500001;;;6.799999;;
27907;SDS011;15249;48.092;11.484;2022-07-23T03:11:11;7.500001;;;6.799999;;
27907;SDS011;15249;48.092;11.484;2022-07-23T03:12:11;8.300001;;;7.2;;
27907;SDS011;15249;48.092;11.484;2022-07-23T03:13:12;8.300001;;;7.2;;
27907;SDS011;15249;48.092;11.484;2022-07-23T03:14:13;8.300001;;;7.2;;
27907;SDS011;15249;48.092;11.484;2022-07-23T03:15:13;8.300001;;;7.2;;
27907;SDS011;15249;48.092;11.484;2022-07-23T03:16:14;8.300001;;;7.2;;
27907;SDS011;15249;48.092;11.484;2022-07-23T03:17:14;8.300001;;;7.2;;
27907;SDS011;15249;48.092;11.484;2022-07-23T03:18:15;8.300001;;;7.2;;
27907;SDS011;15249;48.092;11.484;2022-07-23T03:19:15;8.300001;;;7.2;;
27907;SDS011;15249;48.092;11.484;2022-07-23T03:20:16;8.300001;;;7.2;;
27907;SDS011;15249;48.092;11.484;2022-07-23T03:21:17;8.300001;;;7.2;;
27907;SDS011;15249;48.092;11.484;2022-07-23T03:22:17;7.8;;;7.100001;;
27907;SDS011;15249;48.092;11.484;2022-07-23T03:23:18;7.8;;;7.100001;;
27907;SDS011;15249;48.092;11.484;2022-07-23T03:24:18;7.8;;;7.100001;;
27907;SDS011;15249;48.092;11.484;2022-07-23T03:25:19;7.8;;;7.100001;;
27907;SDS011;15249;48.092;11.484;2022-07-23T03:26:19;7.8;;;7.100001;;
27907;SDS011;15249;48.092;11.484;2022-07-23T03:27:20;7.8;;;7.100001;;
27907;SDS011;15249;48.092;11.484;2022-07-23T03:28:21;7.8;;;7.100001;;
27907;SDS011;15249;48.092;11.484;2022-07-23T03:29:21;7.8;;;7.100001;;
27907;SDS011;15249;48.092;11.484;2022-07-23T03:30:22;7.8;;;7.100001;;
27907;SDS011;15249;48.092;11.484;2022-07-23T03:31:22;7.8;;;7.100001;;
27907;SDS011;15249;48.092;11.484;2022-07-23T03:32:23;7.8;;;7.100001;;
27907;SDS011;15249;48.092;11.484;2022-07-23T03:33:24;7.8;;;7;;
27907;SDS011;15249;48.092;11.484;2022-07-23T03:34:24;7.8;;;7;;
27907;SDS011;15249;48.092;11.484;2022-07-23T03:35:25;7.8;;;7;;
27907;SDS011;15249;48.092;11.484;2022-07-23T03:36:25;7.8;;;7;;
27907;SDS011;15249;48.092;11.484;2022-07-23T03:37:26;7.8;;;7;;
27907;SDS011;15249;48.092;11.484;2022-07-23T03:38:27;7.8;;;7;;
27907;SDS011;15249;48.092;11.484;2022-07-23T03:39:27;7.8;;;7;;
27907;SDS011;15249;48.092;11.484;2022-07-23T03:40:28;7.8;;;7;;
27907;SDS011;15249;48.092;11.484;2022-07-23T03:41:28;7.8;;;7;;
27907;SDS011;15249;48.092;11.484;2022-07-23T03:42:29;7.8;;;7;;
27907;SDS011;15249;48.092;11.484;2022-07-23T03:43:30;7.900001;;;7.2;;
27907;SDS011;15249;48.092;11.484;2022-07-23T03:44:30;7.900001;;;7.2;;
27907;SDS011;15249;48.092;11.484;2022-07-23T03:45:31;7.900001;;;7.2;;
27907;SDS011;15249;48.092;11.484;2022-07-23T03:46:32;7.900001;;;7.2;;
27907;SDS011;15249;48.092;11.484;2022-07-23T03:47:32;7.900001;;;7.2;;
27907;SDS011;15249;48.092;11.484;2022-07-23T03:48:33;7.900001;;;7.2;;
27907;SDS011;15249;48.092;11.484;2022-07-23T03:49:33;7.900001;;;7.2;;
27907;SDS011;15249;48.092;11.484;2022-07-23T03:50:34;7.900001;;;7.2;;
27907;SDS011;15249;48.092;11.484;2022-07-23T03:51:35;7.900001;;;7.2;;
27907;SDS011;15249;48.092;11.484;2022-07-23T03:52:35;7.900001;;;7.2;;
27907;SDS011;15249;48.092;11.484;2022-07-23T03:53:36;7.900001;;;7.2;;
27907;SDS011;15249;48.092;11.484;2022-07-23T03:54:36;8.050001;;;7.25;;
27907;SDS011;15249;48.092;11.484;2022-07-23T03:55:37;8.050001;;;7.25;;
27907;SDS011;15249;48.092;11.484;2022-07-23T03:56:37;8.050001;;;7.25;;
27907;SDS011;15249;48.092;11.484;2022-07-23T03:57:38;8.050001;;;7.25;;
27907;SDS011;15249;48.092;11.484;2022-07-23T03:58:39;8.050001;;;7.25;;
27907;SDS011;15249;48.092;11.484;2022-07-23T03:59:39;8.050001;;;7.25;;
27907;SDS011;15249;48.092;11.484;2022-07-23T04:00:40;8.050001;;;7.25;;
27907;SDS011;15249;48.092;11.484;2022-07-23T04:01:40;8.050001;;;7.25;;
27907;SDS011;15249;48.092;11.484;2022-07-23T04:02:40;8.050001;;;7.25;;
27907;SDS011;15249;48.092;11.484;2022-07-23T04:03:41;8.050001;;;7.25;;
27907;SDS011;15249;48.092;11.484;2022-07-23T04:04:41;7.799999;;;7.1;;
27907;SDS011;15249;48.092;11.484;2022-07-23T04:05:42;7.799999;;;7.1;;
27907;SDS011;15249;48.092;11.484;2022-07-23T04:06:42;7.799999;;;7.1;;
27907;SDS011;15249;48.092;11.484;2022-07-23T04:07:43;7.799999;;;7.1;;
27907;SDS011;15249;48.092;11.484;2022-07-23T04:08:43;7.799999;;;7.1;;
27907;SDS011;15249;48.092;11.484;2022-07-23T04:09:44;7.799999;;;7.1;;
27907;SDS011;15249;48.092;11.484;2022-07-23T04:10:44;7.799999;;;7.1;;
27907;SDS011;15249;48.092;11.484;2022-07-23T04:11:45;7.799999;;;7.1;;
27907;SDS011;15249;48.092;11.484;2022-07-23T04:12:45;7.799999;;;7.1;;
27907;SDS011;15249;48.092;11.484;2022-07-23T04:13:46;7.799999;;;7.1;;
27907;SDS011;15249;48.092;11.484;2022-07-23T04:14:46;7.799999;;;7.1;;
27907;SDS011;15249;48.092;11.484;2022-07-23T04:15:47;9.299999;;;8.400002;;
27907;SDS011;15249;48.092;11.484;2022-07-23T04:16:47;9.299999;;;8.400002;;
27907;SDS011;15249;48.092;11.484;2022-07-23T04:17:48;9.299999;;;8.400002;;
27907;SDS011;15249;48.092;11.484;2022-07-23T04:18:48;9.299999;;;8.400002;;
27907;SDS011;15249;48.092;11.484;2022-07-23T04:19:49;9.299999;;;8.400002;;
27907;SDS011;15249;48.092;11.484;2022-07-23T04:20:50;9.299999;;;8.400002;;
27907;SDS011;15249;48.092;11.484;2022-07-23T04:21:51;9.299999;;;8.400002;;
27907;SDS011;15249;48.092;11.484;2022-07-23T04:22:52;9.299999;;;8.400002;;
27907;SDS011;15249;48.092;11.484;2022-07-23T04:23:52;9.299999;;;8.400002;;
27907;SDS011;15249;48.092;11.484;2022-07-23T04:24:53;9.299999;;;8.400002;;
27907;SDS011;15249;48.092;11.484;2022-07-23T04:25:53;9.299999;;;8.400002;;
27907;SDS011;15249;48.092;11.484;2022-07-23T04:26:54;9.6;;;8.8;;
27907;SDS011;15249;48.092;11.484;2022-07-23T04:27:54;9.6;;;8.8;;
27907;SDS011;15249;48.092;11.484;2022-07-23T04:28:54;9.6;;;8.8;;
27907;SDS011;15249;48.092;11.484;2022-07-23T04:29:55;9.6;;;8.8;;
27907;SDS011;15249;48.092;11.484;2022-07-23T04:30:56;9.6;;;8.8;;
27907;SDS011;15249;48.092;11.484;2022-07-23T04:31:56;9.6;;;8.8;;
27907;SDS011;15249;48.092;11.484;2022-07-23T04:32:57;9.6;;;8.8;;
27907;SDS011;15249;48.092;11.484;2022-07-23T04:33:57;9.6;;;8.8;;
27907;SDS011;15249;48.092;11.484;2022-07-23T04:34:58;9.6;;;8.8;;
27907;SDS011;15249;48.092;11.484;2022-07-23T04:35:58;9.6;;;8.8;;
27907;SDS011;15249;48.092;11.484;2022-07-23T04:36:59;9.749999;;;8.65;;
27907;SDS011;15249;48.092;11.484;2022-07-23T04:37:59;9.749999;;;8.65;;
27907;SDS011;15249;48.092;11.484;2022-07-23T04:39:00;9.749999;;;8.65;;
27907;SDS011;15249;48.092;11.484;2022-07-23T04:40:00;9.749999;;;8.65;;
27907;SDS011;15249;48.092;11.484;2022-07-23T04:41:01;9.749999;;;8.65;;
27907;SDS011;15249;48.092;11.484;2022-07-23T04:42:01;9.749999;;;8.65;;
27907;SDS011;15249;48.092;11.484;2022-07-23T04:43:02;9.749999;;;8.65;;
27907;SDS011;15249;48.092;11.484;2022-07-23T04:44:02;9.749999;;;8.65;;
27907;SDS011;15249;48.092;11.484;2022-07-23T04:45:04;9.749999;;;8.65;;
27907;SDS011;15249;48.092;11.484;2022-07-23T04:46:05;9.749999;;;8.65;;
27907;SDS011;15249;48.092;11.484;2022-07-23T04:47:06;9.749999;;;8.65;;
27907;SDS011;15249;48.092;11.484;2022-07-23T04:48:06;9.45;;;8.55;;
27907;SDS011;15249;48.092;11.484;2022-07-23T04:49:07;9.45;;;8.55;;
27907;SDS011;15249;48.092;11.484;2022-07-23T04:50:08;9.45;;;8.55;;
27907;SDS011;15249;48.092;11.484;2022-07-23T04:51:08;9.45;;;8.55;;
27907;SDS011;15249;48.092;11.484;2022-07-23T04:52:09;9.45;;;8.55;;
27907;SDS011;15249;48.092;11.484;2022-07-23T04:53:09;9.45;;;8.55;;
27907;SDS011;15249;48.092;11.484;2022-07-23T04:54:10;9.45;;;8.55;;
27907;SDS011;15249;48.092;11.484;2022-07-23T04:55:10;9.45;;;8.55;;
27907;SDS011;15249;48.092;11.484;2022-07-23T04:56:11;9.45;;;8.55;;
27907;SDS011;15249;48.092;11.484;2022-07-23T04:57:11;9.45;;;8.55;;
27907;SDS011;15249;48.092;11.484;2022-07-23T04:58:12;8.9;;;8.1;;
27907;SDS011;15249;48.092;11.484;2022-07-23T04:59:12;8.9;;;8.1;;
27907;SDS011;15249;48.092;11.484;2022-07-23T05:00:14;8.9;;;8.1;;
27907;SDS011;15249;48.092;11.484;2022-07-23T05:01:15;8.9;;;8.1;;
27907;SDS011;15249;48.092;11.484;2022-07-23T05:02:15;8.9;;;8.1;;
27907;SDS011;15249;48.092;11.484;2022-07-23T05:03:16;8.9;;;8.1;;
27907;SDS011;15249;48.092;11.484;2022-07-23T05:04:17;8.9;;;8.1;;
27907;SDS011;15249;48.092;11.484;2022-07-23T05:05:17;8.9;;;8.1;;
27907;SDS011;15249;48.092;11.484;2022-07-23T05:06:18;8.9;;;8.1;;
27907;SDS011;15249;48.092;11.484;2022-07-23T05:07:19;8.9;;;8.1;;
27907;SDS011;15249;48.092;11.484;2022-07-23T05:08:19;8.9;;;8.1;;
27907;SDS011;15249;48.092;11.484;2022-07-23T05:09:20;8.95;;;8.1;;
27907;SDS011;15249;48.092;11.484;2022-07-23T05:10:20;8.95;;;8.1;;
27907;SDS011;15249;48.092;11.484;2022-07-23T05:11:21;8.95;;;8.1;;
27907;SDS011;15249;48.092;11.484;2022-07-23T05:12:21;8.95;;;8.1;;
27907;SDS011;15249;48.092;11.484;2022-07-23T05:13:22;8.95;;;8.1;;
27907;SDS011;15249;48.092;11.484;2022-07-23T05:14:22;8.95;;;8.1;;
27907;SDS011;15249;48.092;11.484;2022-07-23T05:15:23;8.95;;;8.1;;
27907;SDS011;15249;48.092;11.484;2022-07-23T05:16:24;8.95;;;8.1;;
27907;SDS011;15249;48.092;11.484;2022-07-23T05:17:24;8.95;;;8.1;;
27907;SDS011;15249;48.092;11.484;2022-07-23T05:18:25;8.95;;;8.1;;
27907;SDS011;15249;48.092;11.484;2022-07-23T05:19:25;9.750001;;;8.75;;
27907;SDS011;15249;48.092;11.484;2022-07-23T05:20:26;9.750001;;;8.75;;
27907;SDS011;15249;48.092;11.484;2022-07-23T05:21:27;9.750001;;;8.75;;
27907;SDS011;15249;48.092;11.484;2022-07-23T05:22:27;9.750001;;;8.75;;
27907;SDS011;15249;48.092;11.484;2022-07-23T05:23:28;9.750001;;;8.75;;
27907;SDS011;15249;48.092;11.484;2022-07-23T05:24:29;9.750001;;;8.75;;
27907;SDS011;15249;48.092;11.484;2022-07-23T05:25:29;9.750001;;;8.75;;
27907;SDS011;15249;48.092;11.484;2022-07-23T05:26:30;9.750001;;;8.75;;
27907;SDS011;15249;48.092;11.484;2022-07-23T05:27:30;9.750001;;;8.75;;
27907;SDS011;15249;48.092;11.484;2022-07-23T05:28:31;9.750001;;;8.75;;
27907;SDS011;15249;48.092;11.484;2022-07-23T05:29:31;9.750001;;;8.75;;
27907;SDS011;15249;48.092;11.484;2022-07-23T05:30:32;9.75;;;8.799999;;
27907;SDS011;15249;48.092;11.484;2022-07-23T05:31:32;9.75;;;8.799999;;
27907;SDS011;15249;48.092;11.484;2022-07-23T05:32:33;9.75;;;8.799999;;
27907;SDS011;15249;48.092;11.484;2022-07-23T05:33:33;9.75;;;8.799999;;
27907;SDS011;15249;48.092;11.484;2022-07-23T05:34:34;9.75;;;8.799999;;
27907;SDS011;15249;48.092;11.484;2022-07-23T05:35:34;9.75;;;8.799999;;
27907;SDS011;15249;48.092;11.484;2022-07-23T05:36:35;9.75;;;8.799999;;
27907;SDS011;15249;48.092;11.484;2022-07-23T05:37:36;9.75;;;8.799999;;
27907;SDS011;15249;48.092;11.484;2022-07-23T05:38:36;9.75;;;8.799999;;
27907;SDS011;15249;48.092;11.484;2022-07-23T05:39:37;9.75;;;8.799999;;
27907;SDS011;15249;48.092;11.484;2022-07-23T05:40:37;9.75;;;8.799999;;
27907;SDS011;15249;48.092;11.484;2022-07-23T05:41:38;10.05;;;9.200001;;
27907;SDS011;15249;48.092;11.484;2022-07-23T05:42:39;10.05;;;9.200001;;
27907;SDS011;15249;48.092;11.484;2022-07-23T05:43:40;10.05;;;9.200001;;
27907;SDS011;15249;48.092;11.484;2022-07-23T05:44:41;10.05;;;9.200001;;